Time;durP1;ratioP1;P1;durP2;ratioP2;P2;SDS_P1;SDS_P2;PMS_P1;PMS_P2;Temp;Humidity;BMP_temperature;BMP_pressure;BME280_temperature;BME280_humidity;BME280_pressure;Samples;Min_cycle;Max_cycle;Signal;HPM_P1;HPM_P2
2022/11/21 00:01:00;;;;;;;;;;;;;;;15.08;70.79;99128.19;5087080;28;1919;-64
2022/11/21 00:03:25;;;;;;;;;;;;;;;15.07;70.74;99128.53;5096066;28;1818;-65
2022/11/21 00:05:50;;;;;;;;;;;;;;;15.06;70.23;99129.66;5093518;28;2031;-64
2022/11/21 00:08:17;;;;;;;;;;;;;;;15.06;70.46;99133.22;5087359;28;1850;-65
2022/11/21 00:10:42;;;;;;;;;;;;;;;15.06;70.20;99137.94;5093990;28;2094;-64
2022/11/21 00:13:11;;;;;;;;;;;;;;;15.06;70.34;99138.75;5089197;28;1654;-64
2022/11/21 00:15:36;;;;;;;;;;;;;;;15.04;71.04;99137.50;5093038;28;1960;-64
2022/11/21 00:18:02;;;;;;;;;;;;;;;15.03;70.71;99141.41;5091763;28;1783;-64
2022/11/21 00:20:27;;;;;;;;;;;;;;;15.02;70.32;99139.78;5095033;28;1806;-64
2022/11/21 00:22:52;;;;;;;;;;;;;;;15.03;70.42;99146.91;5099197;28;1937;-64
2022/11/21 00:25:17;;;;;;;;;;;;;;;15.04;70.30;99156.78;5090022;28;1875;-65
2022/11/21 00:27:43;;;;;;;;;;;;;;;15.02;70.49;99148.03;5097856;28;1950;-65
2022/11/21 00:30:09;;;;;;;;;;;;;;;15.01;70.82;99150.00;5081223;28;1779;-65
2022/11/21 00:32:34;;;;;;;;;;;;;;;15.01;70.91;99147.25;5100347;28;1921;-65
2022/11/21 00:34:59;;;;;;;;;;;;;;;15.00;70.92;99155.84;5098535;28;1977;-65
2022/11/21 00:37:24;;;;;;;;;;;;;;;15.02;70.93;99167.34;5097696;28;1827;-63
2022/11/21 00:39:49;;;;;;;;;;;;;;;14.99;70.55;99160.56;5099963;28;1942;-65
2022/11/21 00:42:15;;;;;;;;;;;;;;;15.00;71.07;99158.59;5099004;28;1934;-64
2022/11/21 00:44:40;;;;;;;;;;;;;;;14.98;70.97;99153.44;5099168;28;1880;-65
2022/11/21 00:47:05;;;;;;;;;;;;;;;14.99;70.87;99148.72;5097352;28;1725;-64
2022/11/21 00:49:30;;;;;;;;;;;;;;;15.00;71.20;99159.41;5097496;28;1867;-65
2022/11/21 00:51:55;;;;;;;;;;;;;;;14.98;70.87;99167.19;5093540;28;2090;-64
2022/11/21 00:54:20;;;;;;;;;;;;;;;14.99;71.23;99162.50;5099395;28;1819;-65
2022/11/21 00:56:45;;;;;;;;;;;;;;;14.99;70.98;99157.00;5092593;28;1692;-65
2022/11/21 00:59:11;;;;;;;;;;;;;;;14.96;71.33;99157.69;5098406;28;1983;-65
2022/11/21 01:01:36;;;;;;;;;;;;;;;14.97;71.01;99149.06;5090763;28;1618;-65
2022/11/21 01:04:01;;;;;;;;;;;;;;;14.96;70.65;99155.75;5097555;28;1906;-63
2022/11/21 01:06:26;;;;;;;;;;;;;;;14.98;70.57;99163.66;5098094;28;1748;-64
2022/11/21 01:08:51;;;;;;;;;;;;;;;14.96;70.50;99161.25;5093835;28;1747;-64
2022/11/21 01:11:17;;;;;;;;;;;;;;;14.93;71.31;99164.69;5097135;28;1897;-65
2022/11/21 01:13:43;;;;;;;;;;;;;;;14.94;71.26;99166.28;5100417;28;1282;-64
2022/11/21 01:16:09;;;;;;;;;;;;;;;14.93;71.33;99155.63;5099432;28;1569;-64
2022/11/21 01:18:35;;;;;;;;;;;;;;;14.94;70.39;99171.00;5098707;28;1549;-65
2022/11/21 01:21:05;;;;;;;;;;;;;;;14.95;71.18;99173.41;5099975;28;808;-64
2022/11/21 01:23:30;;;;;;;;;;;;;;;14.95;71.36;99167.09;5098906;28;1800;-64
2022/11/21 01:25:59;;;;;;;;;;;;;;;14.93;71.35;99169.38;5089305;28;1889;-65
2022/11/21 01:28:25;;;;;;;;;;;;;;;14.93;71.04;99177.66;5098722;28;1583;-65
2022/11/21 01:30:50;;;;;;;;;;;;;;;14.94;71.32;99184.78;5099476;28;1894;-64
2022/11/21 01:33:15;;;;;;;;;;;;;;;14.92;70.58;99184.31;5099259;28;995;-64
2022/11/21 01:35:40;;;;;;;;;;;;;;;14.92;71.24;99193.38;5098803;28;1002;-64
2022/11/21 01:38:05;;;;;;;;;;;;;;;14.88;70.60;99189.72;5099228;28;1211;-64
2022/11/21 01:40:36;;;;;;;;;;;;;;;14.90;71.45;99190.16;5098256;28;1906;-65
2022/11/21 01:43:03;;;;;;;;;;;;;;;14.91;71.36;99191.75;5097810;28;1934;-65
2022/11/21 01:45:47;;;;;;;;;;;;;;;14.91;71.32;99190.97;5097185;28;2074;-64
2022/11/21 01:48:12;;;;;;;;;;;;;;;14.90;71.51;99186.59;5096588;28;1796;-65
2022/11/21 01:50:37;;;;;;;;;;;;;;;14.89;70.77;99194.03;5096617;28;1898;-65
2022/11/21 01:53:02;;;;;;;;;;;;;;;14.91;71.48;99190.97;5094796;28;1710;-64
2022/11/21 01:55:28;;;;;;;;;;;;;;;14.89;71.24;99187.72;5089413;28;2037;-65
2022/11/21 01:57:53;;;;;;;;;;;;;;;14.89;71.35;99190.47;5097127;28;1964;-64
2022/11/21 02:00:22;;;;;;;;;;;;;;;14.89;70.74;99191.28;5097915;28;1589;-65
2022/11/21 02:02:49;;;;;;;;;;;;;;;14.87;71.61;99201.06;5094975;28;1883;-65
2022/11/21 02:05:20;;;;;;;;;;;;;;;14.87;70.56;99201.06;5096727;28;1875;-64
2022/11/21 02:07:47;;;;;;;;;;;;;;;14.85;70.70;99204.16;5097745;28;2176;-65
2022/11/21 02:10:13;;;;;;;;;;;;;;;14.84;71.46;99208.06;5098877;28;1853;-65
2022/11/21 02:12:42;;;;;;;;;;;;;;;14.86;71.76;99207.72;5098482;28;2345;-64
2022/11/21 02:15:07;;;;;;;;;;;;;;;14.84;71.68;99210.81;5098698;28;2032;-64
2022/11/21 02:17:32;;;;;;;;;;;;;;;14.84;71.01;99223.78;5095518;28;2095;-65
2022/11/21 02:20:05;;;;;;;;;;;;;;;14.83;71.47;99227.66;5090592;28;1678;-65
2022/11/21 02:22:53;;;;;;;;;;;;;;;14.86;71.74;99227.81;5097664;28;1649;-65
2022/11/21 02:25:24;;;;;;;;;;;;;;;14.84;70.67;99234.78;5094545;28;1891;-65
2022/11/21 02:27:50;;;;;;;;;;;;;;;14.81;71.58;99228.00;5097173;28;1786;-62
2022/11/21 02:30:16;;;;;;;;;;;;;;;14.82;70.79;99224.09;5095292;28;2256;-65
2022/11/21 02:32:45;;;;;;;;;;;;;;;14.80;71.25;99218.13;5095179;28;1998;-64
2022/11/21 02:35:11;;;;;;;;;;;;;;;14.81;71.82;99216.97;5096794;28;2029;-65
2022/11/21 02:37:36;;;;;;;;;;;;;;;14.79;71.78;99224.00;5090931;28;1601;-65
2022/11/21 02:40:05;;;;;;;;;;;;;;;14.79;71.49;99229.50;5097882;28;1897;-64
2022/11/21 02:42:33;;;;;;;;;;;;;;;14.79;71.30;99227.56;5095408;28;1809;-64
2022/11/21 02:45:13;;;;;;;;;;;;;;;14.81;71.03;99225.25;5088997;28;1889;-64
2022/11/21 02:47:40;;;;;;;;;;;;;;;14.79;71.67;99222.06;5095005;28;1987;-65
2022/11/21 02:50:12;;;;;;;;;;;;;;;14.76;71.72;99239.25;5097861;28;1949;-65
2022/11/21 02:52:37;;;;;;;;;;;;;;;14.80;71.80;99237.41;5095728;28;1883;-65
2022/11/21 02:55:03;;;;;;;;;;;;;;;14.79;71.12;99252.34;5091198;28;1964;-64
2022/11/21 02:57:28;;;;;;;;;;;;;;;14.79;71.95;99243.28;5092352;28;2006;-64
2022/11/21 02:59:54;;;;;;;;;;;;;;;14.80;71.38;99244.91;5095430;28;1895;-65
2022/11/21 03:02:19;;;;;;;;;;;;;;;14.77;71.60;99244.41;5093165;28;1806;-64
2022/11/21 03:04:44;;;;;;;;;;;;;;;14.76;71.53;99242.81;5085736;28;1840;-63
2022/11/21 03:07:09;;;;;;;;;;;;;;;14.76;71.28;99237.31;5095621;28;2091;-65
2022/11/21 03:09:34;;;;;;;;;;;;;;;14.76;71.74;99247.50;5095120;28;1971;-64
2022/11/21 03:12:04;;;;;;;;;;;;;;;14.79;71.93;99243.28;5096175;28;1964;-64
2022/11/21 03:14:29;;;;;;;;;;;;;;;14.76;71.61;99242.00;5091231;28;1911;-64
2022/11/21 03:16:54;;;;;;;;;;;;;;;14.79;71.05;99243.28;5096790;28;2060;-65
2022/11/21 03:19:19;;;;;;;;;;;;;;;14.77;72.09;99240.84;5089970;28;1770;-64
2022/11/21 03:21:44;;;;;;;;;;;;;;;14.74;71.42;99250.59;5086447;28;1904;-65
2022/11/21 03:24:09;;;;;;;;;;;;;;;14.76;72.08;99248.31;5090502;28;1915;-65
2022/11/21 03:26:34;;;;;;;;;;;;;;;14.75;72.12;99246.69;5085916;28;1894;-63
2022/11/21 03:29:00;;;;;;;;;;;;;;;14.77;71.35;99244.41;5096954;28;1725;-65
2022/11/21 03:31:25;;;;;;;;;;;;;;;14.75;71.92;99246.69;5097411;28;1894;-64
2022/11/21 03:33:50;;;;;;;;;;;;;;;14.74;72.25;99245.09;5097149;28;1581;-65
2022/11/21 03:36:15;;;;;;;;;;;;;;;14.75;71.98;99240.38;5096706;28;773;-65
2022/11/21 03:38:40;;;;;;;;;;;;;;;14.75;72.08;99246.69;5096478;28;1715;-65
2022/11/21 03:41:28;;;;;;;;;;;;;;;14.74;72.17;99238.78;5097809;28;1706;-65
2022/11/21 03:43:51;;;;;;;;;;;;;;;14.75;71.85;99254.16;5078446;28;1491;-65
2022/11/21 03:46:16;;;;;;;;;;;;;;;14.75;71.61;99263.22;5097401;28;793;-64
2022/11/21 03:48:41;;;;;;;;;;;;;;;14.72;71.91;99269.41;5097213;28;1301;-64
2022/11/21 03:51:06;;;;;;;;;;;;;;;14.73;71.66;99275.72;5099145;28;1944;-63
2022/11/21 03:53:32;;;;;;;;;;;;;;;14.71;71.57;99278.84;5100956;28;1629;-64
2022/11/21 03:55:57;;;;;;;;;;;;;;;14.70;71.72;99285.47;5088009;28;1538;-65
2022/11/21 03:58:22;;;;;;;;;;;;;;;14.72;71.68;99279.63;5081183;28;1963;-64
2022/11/21 04:00:47;;;;;;;;;;;;;;;14.72;71.40;99299.69;5099320;28;1754;-65
2022/11/21 04:03:12;;;;;;;;;;;;;;;14.74;72.18;99293.88;5099731;28;1652;-65
2022/11/21 04:05:37;;;;;;;;;;;;;;;14.72;72.38;99301.66;5091208;28;1879;-64
2022/11/21 04:08:02;;;;;;;;;;;;;;;14.69;72.03;99303.16;5098115;28;1674;-64
2022/11/21 04:10:28;;;;;;;;;;;;;;;14.71;71.67;99297.31;5093084;28;2083;-63
2022/11/21 04:12:53;;;;;;;;;;;;;;;14.72;71.38;99307.16;5099226;28;2127;-65
2022/11/21 04:15:18;;;;;;;;;;;;;;;14.69;71.83;99310.59;5095158;28;1941;-63
2022/11/21 04:17:43;;;;;;;;;;;;;;;14.67;72.44;99315.63;5098293;28;1862;-64
2022/11/21 04:20:09;;;;;;;;;;;;;;;14.69;71.92;99308.66;5094590;28;1524;-65
2022/11/21 04:22:34;;;;;;;;;;;;;;;14.67;72.01;99305.44;5089220;28;1965;-63
2022/11/21 04:24:59;;;;;;;;;;;;;;;14.68;72.33;99300.72;5098346;28;1987;-65
2022/11/21 04:27:24;;;;;;;;;;;;;;;14.66;72.11;99314.03;5096693;28;2057;-64
2022/11/21 04:29:49;;;;;;;;;;;;;;;14.67;72.06;99316.44;5079384;28;1683;-65
2022/11/21 04:32:14;;;;;;;;;;;;;;;14.66;71.85;99312.06;5097694;28;1903;-64
2022/11/21 04:34:40;;;;;;;;;;;;;;;14.67;72.36;99316.44;5093937;28;1828;-65
2022/11/21 04:37:06;;;;;;;;;;;;;;;14.67;72.30;99315.63;5100047;28;843;-64
2022/11/21 04:39:31;;;;;;;;;;;;;;;14.66;72.26;99316.78;5098744;28;1875;-64
2022/11/21 04:41:56;;;;;;;;;;;;;;;14.68;71.39;99318.06;5084152;28;1574;-65
2022/11/21 04:44:21;;;;;;;;;;;;;;;14.65;71.60;99328.94;5097367;28;1794;-64
2022/11/21 04:46:46;;;;;;;;;;;;;;;14.66;71.34;99320.34;5097536;28;1843;-65
2022/11/21 04:49:11;;;;;;;;;;;;;;;14.65;71.62;99317.91;5099389;28;1861;-65
2022/11/21 04:51:37;;;;;;;;;;;;;;;14.65;71.97;99323.41;5098163;28;1993;-64
2022/11/21 04:54:02;;;;;;;;;;;;;;;14.65;72.48;99323.41;5101339;28;1959;-65
2022/11/21 04:56:27;;;;;;;;;;;;;;;14.65;72.09;99320.66;5099395;28;1641;-63
2022/11/21 04:58:52;;;;;;;;;;;;;;;14.64;72.15;99316.28;5098371;28;1881;-65
2022/11/21 05:01:17;;;;;;;;;;;;;;;14.64;71.53;99317.09;5099864;28;1741;-65
2022/11/21 05:03:42;;;;;;;;;;;;;;;14.62;71.84;99313.09;5099682;28;2000;-65
2022/11/21 05:06:08;;;;;;;;;;;;;;;14.59;72.17;99317.31;5100845;28;1592;-65
2022/11/21 05:08:33;;;;;;;;;;;;;;;14.60;71.90;99316.19;5099243;28;1790;-65
2022/11/21 05:13:42;;;;;;;;;;;;;;;14.60;72.36;99316.19;5097975;28;1678;-64
2022/11/21 05:16:07;;;;;;;;;;;;;;;14.57;71.46;99316.03;5085744;28;1787;-65
2022/11/21 05:18:32;;;;;;;;;;;;;;;14.59;72.45;99317.31;5097685;28;1627;-65
2022/11/21 05:20:57;;;;;;;;;;;;;;;14.57;72.21;99325.09;5099906;28;856;-64
2022/11/21 05:23:22;;;;;;;;;;;;;;;14.58;71.88;99323.16;5100676;28;908;-65
2022/11/21 05:25:47;;;;;;;;;;;;;;;14.58;71.69;99334.97;5100081;28;1074;-63
2022/11/21 05:28:12;;;;;;;;;;;;;;;14.57;72.24;99321.53;5099586;28;1979;-64
2022/11/21 05:30:38;;;;;;;;;;;;;;;14.57;71.92;99318.78;5098936;28;1959;-64
2022/11/21 05:33:03;;;;;;;;;;;;;;;14.58;72.39;99312.94;5098630;28;1023;-65
2022/11/21 05:35:28;;;;;;;;;;;;;;;14.61;72.44;99315.03;5099197;28;1011;-65
2022/11/21 05:37:54;;;;;;;;;;;;;;;14.59;71.91;99309.06;5099498;28;1003;-65
2022/11/21 05:40:19;;;;;;;;;;;;;;;14.56;71.70;99315.22;5100985;28;951;-65
2022/11/21 05:45:28;;;;;;;;;;;;;;;14.55;72.65;99313.59;5089549;28;2333;-65
2022/11/21 05:47:53;;;;;;;;;;;;;;;14.54;71.97;99306.53;5090308;28;1817;-65
2022/11/21 05:50:18;;;;;;;;;;;;;;;14.54;72.24;99302.97;5098334;28;1804;-65
2022/11/21 05:52:44;;;;;;;;;;;;;;;14.53;72.62;99304.91;5088263;28;1878;-65
2022/11/21 05:55:09;;;;;;;;;;;;;;;14.53;72.30;99315.91;5094129;28;1883;-65
2022/11/21 05:57:34;;;;;;;;;;;;;;;14.51;72.72;99314.63;5098369;28;1850;-65
2022/11/21 05:59:59;;;;;;;;;;;;;;;14.53;72.51;99317.88;5098369;28;1887;-64
2022/11/21 06:05:08;;;;;;;;;;;;;;;14.57;72.74;99322.34;5090038;28;1900;-64
2022/11/21 06:07:33;;;;;;;;;;;;;;;14.53;72.88;99321.41;5097007;28;1817;-65
2022/11/21 06:09:58;;;;;;;;;;;;;;;14.51;72.62;99322.88;5095385;28;1957;-64
2022/11/21 06:12:23;;;;;;;;;;;;;;;14.51;72.10;99315.44;5094980;28;1961;-64
2022/11/21 06:14:49;;;;;;;;;;;;;;;14.50;71.98;99313.81;5093231;28;1655;-64
2022/11/21 06:17:14;;;;;;;;;;;;;;;14.54;71.84;99323.03;5096633;28;2072;-65
2022/11/21 06:19:39;;;;;;;;;;;;;;;14.51;71.70;99320.94;5098211;28;1644;-65
2022/11/21 06:22:04;;;;;;;;;;;;;;;14.54;72.16;99322.22;5093794;28;1996;-65
2022/11/21 06:24:29;;;;;;;;;;;;;;;14.57;71.75;99316.84;5092419;28;1578;-64
2022/11/21 06:26:54;;;;;;;;;;;;;;;14.57;72.23;99316.84;5096710;28;2072;-65
2022/11/21 06:29:21;;;;;;;;;;;;;;;14.69;71.87;99319.69;5088446;28;2487;-64
2022/11/21 06:31:46;;;;;;;;;;;;;;;14.72;72.09;99332.75;5093227;28;2010;-64
2022/11/21 06:34:11;;;;;;;;;;;;;;;14.68;72.98;99337.34;5096611;28;2141;-63
2022/11/21 06:36:36;;;;;;;;;;;;;;;14.71;73.16;99338.63;5095452;28;1920;-65
2022/11/21 06:39:01;;;;;;;;;;;;;;;14.71;72.54;99350.44;5095690;28;2061;-63
2022/11/21 06:41:29;;;;;;;;;;;;;;;14.74;73.31;99348.94;5088290;28;1660;-65
2022/11/21 06:43:57;;;;;;;;;;;;;;;14.76;73.29;99352.19;5097527;28;2002;-65
2022/11/21 06:46:22;;;;;;;;;;;;;;;14.81;72.46;99353.91;5095335;28;2025;-64
2022/11/21 06:48:47;;;;;;;;;;;;;;;14.87;72.14;99349.84;5098545;28;2006;-65
2022/11/21 06:51:16;;;;;;;;;;;;;;;14.90;72.16;99344.44;5099457;28;1893;-65
2022/11/21 06:53:41;;;;;;;;;;;;;;;14.98;71.93;99348.25;5097951;28;1656;-63
2022/11/21 06:56:06;;;;;;;;;;;;;;;15.03;72.14;99356.34;5096397;28;1690;-64
2022/11/21 06:58:31;;;;;;;;;;;;;;;15.04;71.91;99361.53;5096718;28;1891;-65
2022/11/21 07:00:57;;;;;;;;;;;;;;;15.06;72.25;99361.16;5092209;28;1950;-65
2022/11/21 07:03:22;;;;;;;;;;;;;;;15.06;72.29;99366.66;5095474;28;1969;-65
2022/11/21 07:05:48;;;;;;;;;;;;;;;15.07;72.29;99366.34;5096000;28;2032;-64
2022/11/21 07:08:13;;;;;;;;;;;;;;;15.08;72.46;99373.47;5089486;28;1620;-65
2022/11/21 07:10:39;;;;;;;;;;;;;;;15.10;72.87;99373.13;5094647;28;2057;-64
2022/11/21 07:13:22;;;;;;;;;;;;;;;15.11;72.49;99374.75;5092410;28;2239;-64
2022/11/21 07:15:51;;;;;;;;;;;;;;;15.14;72.56;99383.13;5096289;28;2123;-64
2022/11/21 07:18:17;;;;;;;;;;;;;;;15.15;72.47;99379.22;5087187;28;2254;-64
2022/11/21 07:20:42;;;;;;;;;;;;;;;15.17;72.38;99381.66;5088182;28;2121;-63
2022/11/21 07:23:08;;;;;;;;;;;;;;;15.19;72.48;99378.56;5091461;28;2132;-63
2022/11/21 07:25:33;;;;;;;;;;;;;;;15.20;72.33;99381.00;5087379;28;2104;-65
2022/11/21 07:27:59;;;;;;;;;;;;;;;15.22;72.87;99386.19;5095291;28;1895;-64
2022/11/21 07:30:24;;;;;;;;;;;;;;;15.24;72.52;99384.66;5092175;28;1867;-64
2022/11/21 07:32:56;;;;;;;;;;;;;;;15.27;72.04;99383.19;5093843;28;1959;-63
2022/11/21 07:35:22;;;;;;;;;;;;;;;15.29;72.61;99378.97;5095489;28;1984;-64
2022/11/21 07:37:47;;;;;;;;;;;;;;;15.31;72.08;99375.88;5088992;28;2024;-64
2022/11/21 07:40:12;;;;;;;;;;;;;;;15.33;72.41;99368.03;5095633;28;1988;-65
2022/11/21 07:42:37;;;;;;;;;;;;;;;15.34;71.78;99372.41;5096129;28;1557;-64
2022/11/21 07:45:03;;;;;;;;;;;;;;;15.35;71.96;99365.75;5086198;28;2131;-65
2022/11/21 07:47:28;;;;;;;;;;;;;;;15.37;72.24;99366.22;5097208;28;1597;-65
2022/11/21 07:49:53;;;;;;;;;;;;;;;15.37;71.95;99378.06;5093462;28;1977;-64
2022/11/21 07:52:18;;;;;;;;;;;;;;;15.38;72.65;99374.16;5088505;28;1901;-68
2022/11/21 07:54:43;;;;;;;;;;;;;;;15.40;72.66;99377.38;5094228;28;2124;-64
2022/11/21 07:57:09;;;;;;;;;;;;;;;15.41;72.22;99380.94;5096366;28;2026;-64
2022/11/21 07:59:34;;;;;;;;;;;;;;;15.41;72.27;99380.94;5093601;28;1804;-63
2022/11/21 08:01:59;;;;;;;;;;;;;;;15.42;72.07;99377.84;5090479;28;2063;-64
2022/11/21 08:04:25;;;;;;;;;;;;;;;15.43;72.70;99384.16;5091371;28;2047;-65
2022/11/21 08:06:50;;;;;;;;;;;;;;;15.43;71.97;99387.72;5089255;28;2098;-64
2022/11/21 08:09:15;;;;;;;;;;;;;;;15.44;72.43;99392.09;5089772;28;2138;-64
2022/11/21 08:11:40;;;;;;;;;;;;;;;15.44;72.80;99394.88;5097036;28;2196;-64
2022/11/21 08:14:05;;;;;;;;;;;;;;;15.45;72.27;99393.72;5089325;28;2214;-65
2022/11/21 08:16:31;;;;;;;;;;;;;;;15.44;72.60;99394.88;5095308;28;1921;-64
2022/11/21 08:18:57;;;;;;;;;;;;;;;15.46;72.60;99395.34;5095455;28;2029;-64
2022/11/21 08:21:22;;;;;;;;;;;;;;;15.48;72.67;99389.50;5097218;28;1548;-64
2022/11/21 08:23:47;;;;;;;;;;;;;;;15.46;72.62;99389.81;5093593;28;1992;-64
2022/11/21 08:26:12;;;;;;;;;;;;;;;15.47;73.07;99388.69;5094737;28;2322;-63
2022/11/21 08:28:38;;;;;;;;;;;;;;;15.48;72.53;99389.50;5092443;28;1954;-64
2022/11/21 08:31:03;;;;;;;;;;;;;;;15.48;72.73;99384.75;5093863;28;2527;-64
2022/11/21 08:33:29;;;;;;;;;;;;;;;15.47;72.64;99385.94;5091218;28;2174;-63
2022/11/21 08:35:54;;;;;;;;;;;;;;;15.48;72.70;99384.75;5090168;28;2183;-63
2022/11/21 08:38:19;;;;;;;;;;;;;;;15.49;72.48;99380.03;5101096;28;1532;-63
2022/11/21 08:40:44;;;;;;;;;;;;;;;15.50;72.67;99387.97;5080236;28;1833;-63
2022/11/21 08:43:09;;;;;;;;;;;;;;;15.49;72.62;99383.59;5092900;28;1950;-64
2022/11/21 08:45:35;;;;;;;;;;;;;;;15.50;72.58;99381.66;5098812;28;1950;-64
2022/11/21 08:48:01;;;;;;;;;;;;;;;15.52;72.56;99398.69;5093715;28;2036;-63
2022/11/21 08:50:30;;;;;;;;;;;;;;;15.54;72.82;99401.94;5091336;28;1560;-63
2022/11/21 08:53:00;;;;;;;;;;;;;;;15.55;72.70;99391.72;5087044;28;1937;-64
2022/11/21 08:55:25;;;;;;;;;;;;;;;15.54;72.80;99382.63;5093770;28;2123;-61
2022/11/21 08:57:50;;;;;;;;;;;;;;;15.56;72.36;99379.53;5097971;28;2168;-64
2022/11/21 09:00:15;;;;;;;;;;;;;;;15.56;72.74;99387.81;5092776;28;1946;-64
2022/11/21 09:02:40;;;;;;;;;;;;;;;15.57;72.58;99387.44;5098949;28;1894;-64
2022/11/21 09:05:06;;;;;;;;;;;;;;;15.58;72.41;99393.78;5091948;28;2010;-64
2022/11/21 09:07:31;;;;;;;;;;;;;;;15.60;72.59;99392.28;5081655;28;2029;-64
2022/11/21 09:09:56;;;;;;;;;;;;;;;15.62;72.60;99394.72;5071604;28;2037;-64
2022/11/21 09:12:21;;;;;;;;;;;;;;;15.61;72.65;99393.91;5082959;28;2042;-63
2022/11/21 09:20:14;;;;;;;;;;;;;;;15.63;72.51;99386.09;5093297;28;2125;-64
2022/11/21 09:22:40;;;;;;;;;;;;;;;15.64;72.50;99381.41;5097145;28;1958;-63
2022/11/21 09:25:05;;;;;;;;;;;;;;;15.66;72.69;99376.31;5096530;28;2037;-64
2022/11/21 09:27:30;;;;;;;;;;;;;;;15.66;72.30;99374.38;5096372;28;2142;-63
2022/11/21 09:29:55;;;;;;;;;;;;;;;15.67;72.29;99380.69;5096201;28;2089;-64
2022/11/21 09:32:20;;;;;;;;;;;;;;;15.67;72.40;99376.00;5096447;28;1877;-64
2022/11/21 09:34:45;;;;;;;;;;;;;;;15.68;72.61;99374.03;5097924;28;999;-64
2022/11/21 09:37:11;;;;;;;;;;;;;;;15.69;72.39;99379.22;5093769;28;1950;-64
2022/11/21 09:39:36;;;;;;;;;;;;;;;15.69;72.66;99379.22;5097490;28;1781;-63
2022/11/21 09:42:20;;;;;;;;;;;;;;;15.70;72.40;99383.59;5093562;28;1617;-64
2022/11/21 09:45:06;;;;;;;;;;;;;;;15.71;72.57;99378.88;5090655;28;1077;-64
2022/11/21 09:47:34;;;;;;;;;;;;;;;15.72;72.04;99378.53;5093895;28;1796;-64
2022/11/21 09:50:01;;;;;;;;;;;;;;;15.72;72.75;99375.78;5097668;28;1703;-64
2022/11/21 09:52:30;;;;;;;;;;;;;;;15.72;72.44;99373.03;5094491;28;2022;-63
2022/11/21 09:55:00;;;;;;;;;;;;;;;15.73;72.36;99374.66;5084890;28;1940;-63
2022/11/21 09:57:26;;;;;;;;;;;;;;;15.74;72.60;99375.41;5094886;28;1528;-64
2022/11/21 09:59:51;;;;;;;;;;;;;;;15.74;72.49;99375.41;5096844;28;1925;-63
2022/11/21 10:02:18;;;;;;;;;;;;;;;15.74;72.55;99367.94;5098536;28;1514;-63
2022/11/21 10:04:47;;;;;;;;;;;;;;;15.75;72.47;99374.28;5096615;28;1787;-63
2022/11/21 10:07:26;;;;;;;;;;;;;;;15.76;72.57;99370.38;5092199;28;1566;-64
2022/11/21 10:10:10;;;;;;;;;;;;;;;15.76;72.42;99371.19;5097206;28;1936;-64
2022/11/21 10:12:54;;;;;;;;;;;;;;;15.76;72.43;99373.13;5096055;28;1952;-64
2022/11/21 10:15:38;;;;;;;;;;;;;;;15.77;72.49;99377.50;5091740;28;1873;-63
2022/11/21 10:18:18;;;;;;;;;;;;;;;15.77;72.24;99358.19;5088660;28;1852;-63
2022/11/21 10:21:02;;;;;;;;;;;;;;;15.77;72.54;99358.19;5097549;28;1812;-66
2022/11/21 10:23:50;;;;;;;;;;;;;;;15.78;72.62;99368.88;5097597;28;1900;-64
2022/11/21 10:26:21;;;;;;;;;;;;;;;15.79;72.87;99375.22;5098569;28;1535;-63
2022/11/21 10:28:46;;;;;;;;;;;;;;;15.79;72.58;99367.75;5096094;28;1863;-64
2022/11/21 10:31:13;;;;;;;;;;;;;;;15.80;72.77;99376.84;5089120;28;2074;-62
2022/11/21 10:33:39;;;;;;;;;;;;;;;15.79;72.76;99362.22;5092861;28;1844;-64
2022/11/21 10:36:25;;;;;;;;;;;;;;;15.81;72.64;99359.13;5097281;28;834;-64
2022/11/21 10:38:51;;;;;;;;;;;;;;;15.81;72.46;99343.38;5086697;28;1780;-64
2022/11/21 10:41:28;;;;;;;;;;;;;;;15.81;72.66;99332.34;5090879;28;1521;-64
2022/11/21 10:46:57;;;;;;;;;;;;;;;15.82;72.59;99324.88;5077526;28;718;-63
2022/11/21 10:49:24;;;;;;;;;;;;;;;15.83;72.78;99312.66;5082914;28;1213;-64
2022/11/21 10:51:51;;;;;;;;;;;;;;;15.83;72.51;99307.16;5095597;28;1970;-64
2022/11/21 10:54:32;;;;;;;;;;;;;;;15.83;72.68;99305.19;5095461;28;1591;-64
2022/11/21 10:56:59;;;;;;;;;;;;;;;15.83;72.65;99302.44;5088054;28;1566;-64
2022/11/21 10:59:26;;;;;;;;;;;;;;;15.83;72.29;99307.94;5096631;28;1301;-63
2022/11/21 11:01:55;;;;;;;;;;;;;;;15.84;72.60;99304.03;5093878;28;1945;-64
2022/11/21 11:04:21;;;;;;;;;;;;;;;15.85;72.78;99296.56;5092685;28;1959;-63
2022/11/21 11:06:46;;;;;;;;;;;;;;;15.84;72.66;99290.25;5096279;28;1647;-61
2022/11/21 11:09:27;;;;;;;;;;;;;;;15.85;72.71;99289.09;5097764;28;1322;-64
2022/11/21 11:11:52;;;;;;;;;;;;;;;15.86;72.96;99281.63;5091807;28;1923;-64
2022/11/21 11:14:26;;;;;;;;;;;;;;;15.86;72.76;99285.19;5092113;28;1910;-64
2022/11/21 11:16:51;;;;;;;;;;;;;;;15.86;72.82;99284.41;5092150;28;1971;-64
2022/11/21 11:19:19;;;;;;;;;;;;;;;15.87;72.74;99288.75;5093318;28;1936;-64
2022/11/21 11:21:45;;;;;;;;;;;;;;;15.88;72.59;99293.13;5092201;28;1803;-63
2022/11/21 11:24:10;;;;;;;;;;;;;;;15.86;72.52;99287.97;5093774;28;1986;-64
2022/11/21 11:26:48;;;;;;;;;;;;;;;15.87;72.69;99277.72;5086463;28;1844;-64
2022/11/21 11:29:15;;;;;;;;;;;;;;;15.87;72.88;99286.81;5092623;28;1964;-64
2022/11/21 11:31:40;;;;;;;;;;;;;;;15.88;72.77;99274.63;5085506;28;1894;-64
2022/11/21 11:34:10;;;;;;;;;;;;;;;15.88;72.90;99274.63;5093755;28;1941;-64
2022/11/21 11:36:38;;;;;;;;;;;;;;;15.88;72.88;99268.31;5094801;28;1524;-63
2022/11/21 11:39:16;;;;;;;;;;;;;;;15.89;72.55;99267.16;5093128;28;1883;-63
2022/11/21 11:47:33;;;;;;;;;;;;;;;15.92;72.72;99260.13;5089868;28;1767;-63
2022/11/21 11:50:11;;;;;;;;;;;;;;;15.91;72.47;99248.28;5092363;28;1951;-64
2022/11/21 11:52:39;;;;;;;;;;;;;;;15.92;72.76;99236.09;5093445;28;1900;-64
2022/11/21 11:55:06;;;;;;;;;;;;;;;15.93;72.74;99245.16;5091907;28;1791;-64
2022/11/21 11:57:34;;;;;;;;;;;;;;;15.94;72.87;99244.03;5086686;28;1934;-64
2022/11/21 12:00:05;;;;;;;;;;;;;;;15.93;72.52;99243.22;5087053;28;2032;-64
2022/11/21 12:02:44;;;;;;;;;;;;;;;15.94;72.94;99239.31;5093169;28;1775;-64
2022/11/21 12:05:14;;;;;;;;;;;;;;;15.93;73.02;99234.94;5089468;28;2032;-64
2022/11/21 12:07:43;;;;;;;;;;;;;;;15.94;72.60;99228.28;5091967;28;1873;-64
2022/11/21 12:10:30;;;;;;;;;;;;;;;15.95;72.85;99237.34;5089545;28;1524;-64
2022/11/21 12:13:02;;;;;;;;;;;;;;;15.95;72.89;99224.38;5091862;28;2064;-64
2022/11/21 12:15:49;;;;;;;;;;;;;;;15.94;73.12;99214.47;5098572;28;1564;-64
2022/11/21 12:18:18;;;;;;;;;;;;;;;15.95;72.88;99210.56;5094316;28;2100;-63
2022/11/21 12:20:43;;;;;;;;;;;;;;;15.96;73.15;99214.94;5096606;28;1856;-63
2022/11/21 12:23:09;;;;;;;;;;;;;;;15.96;72.89;99212.19;5097231;28;1649;-64
2022/11/21 12:25:36;;;;;;;;;;;;;;;15.96;73.16;99208.63;5090775;28;2363;-63
2022/11/21 12:28:04;;;;;;;;;;;;;;;15.97;72.99;99202.75;5096482;28;1940;-64
2022/11/21 12:30:48;;;;;;;;;;;;;;;15.96;73.21;99201.13;5091307;28;1730;-64
2022/11/21 12:33:21;;;;;;;;;;;;;;;15.96;73.05;99206.66;5097453;28;2041;-63
2022/11/21 12:35:46;;;;;;;;;;;;;;;15.97;73.16;99191.72;5097495;28;1952;-64
2022/11/21 12:38:30;;;;;;;;;;;;;;;15.98;72.87;99178.72;5097321;28;2241;-64
2022/11/21 12:40:55;;;;;;;;;;;;;;;15.98;72.97;99176.75;5098927;28;900;-63
2022/11/21 12:43:33;;;;;;;;;;;;;;;15.98;72.92;99168.47;5089650;28;1942;-63
2022/11/21 12:45:58;;;;;;;;;;;;;;;15.99;72.72;99172.81;5089741;28;2032;-64
2022/11/21 12:54:34;;;;;;;;;;;;;;;15.99;72.93;99161.78;5087531;28;1201;-64
2022/11/21 12:57:15;;;;;;;;;;;;;;;16.00;72.90;99163.41;5095691;28;1858;-64
2022/11/21 12:59:49;;;;;;;;;;;;;;;16.01;73.06;99155.91;5085855;28;1749;-62
2022/11/21 13:02:23;;;;;;;;;;;;;;;16.00;73.11;99152.34;5088023;28;1636;-64
2022/11/21 13:04:49;;;;;;;;;;;;;;;16.01;73.17;99144.88;5092338;28;2125;-62
2022/11/21 13:07:14;;;;;;;;;;;;;;;16.02;72.99;99138.22;5086589;28;2063;-64
2022/11/21 13:09:42;;;;;;;;;;;;;;;16.02;72.98;99135.44;5095338;28;1756;-64
2022/11/21 13:12:19;;;;;;;;;;;;;;;15.65;73.02;99063.81;5092148;28;2321;-64
2022/11/21 13:14:50;;;;;;;;;;;;;;;16.03;73.05;99112.22;5095669;28;1785;-64
2022/11/21 13:17:24;;;;;;;;;;;;;;;16.03;72.89;99107.50;5093181;28;2049;-64
2022/11/21 13:19:58;;;;;;;;;;;;;;;16.05;72.68;99098.88;5094205;28;1968;-62
2022/11/21 13:22:35;;;;;;;;;;;;;;;16.04;72.95;99106.34;5093302;28;2794;-64
2022/11/21 13:25:02;;;;;;;;;;;;;;;16.05;72.76;99116.25;5089241;28;1932;-64
2022/11/21 13:27:35;;;;;;;;;;;;;;;16.05;72.83;99109.94;5087240;28;2013;-63